Decoded Metar for KMGJ (MONTGOMERY in NY, USA) (IATA:MGJ) | Meteo·Mobile Aviation Weather
aviador You're here:

KMGJ Decoded Metar

MONTGOMERY in NY, USA
Report Time2018-10-18 07:54:00
UTC Time2018-10-18 08:55:01
Flight Rules vfr VFR
Wind300° at 08 Gusting to 15 kt
W.Decomp.*RWY 26: 4.7 kt HW 6.5 kt RCW
RWY 03: 1.9 kt HW 7.8 kt LCW
W.Rank300° ranks 7
Current wind is below 300° avg. (8.6)
Visibility9999 m
Phenomena:N/A
Clouds:Few 033 Hf
Broken 044 Hf
Expected CloudBase > 2,400 ft AGL from Temp-Dew spread
Ceiling4,400 ft
Temp04°C (ISA -10)
Dew Point-2°C (65% RH)
AAT-1.1°C
QNH1022 hPa
Density Alt-1,122 ft
Elevation354 ft
Report Wrong Elevation
Raw Report
KMGJ 180754Z AUTO 30008G15KT 10SM FEW033 BKN044 04/M02 A3017 RMK
AO2 SLP217 T00441017=

Extra information for KMGJ:More info

Metar Taf Metar & Taf Last 4 Metars F.Rules Stats Wind Profile Meteogram Temp Stats Airport Information Weather charts Add Link Nearby VenuesMetar ALERT Operation Metar Decoded Social comments

AIRNAV info for KMGJ